Time;durP1;ratioP1;P1;durP2;ratioP2;P2;SDS_P1;SDS_P2;PMS_P1;PMS_P2;Temp;Humidity;BMP_temperature;BMP_pressure;BME280_temperature;BME280_humidity;BME280_pressure;Samples;Min_cycle;Max_cycle;Signal;HPM_P1;HPM_P2
2023/10/31 00:00:16;;;;;;;2.00;1.30;;;9.80;99.90;;;;;;5066563;28;20412;-58
2023/10/31 00:02:42;;;;;;;1.40;1.30;;;9.80;99.90;;;;;;5060408;28;20245;-58
2023/10/31 00:05:07;;;;;;;1.40;1.30;;;9.80;99.90;;;;;;5058628;28;20464;-58
2023/10/31 00:07:33;;;;;;;1.83;1.10;;;9.70;99.90;;;;;;5062302;28;20178;-56
2023/10/31 00:09:58;;;;;;;4.00;1.20;;;9.80;99.90;;;;;;5059701;28;20202;-58
2023/10/31 00:12:24;;;;;;;1.20;1.10;;;9.70;99.90;;;;;;5065326;28;20197;-57
2023/10/31 00:14:50;;;;;;;2.70;1.20;;;9.70;99.90;;;;;;5062651;28;21002;-58
2023/10/31 00:17:15;;;;;;;0.90;0.90;;;9.70;99.90;;;;;;5065865;28;20193;-58
2023/10/31 00:19:41;;;;;;;1.30;1.20;;;9.70;99.90;;;;;;5060901;28;20747;-58
2023/10/31 00:22:06;;;;;;;1.20;1.10;;;9.70;99.90;;;;;;5059649;28;20198;-57
2023/10/31 00:24:32;;;;;;;6.33;1.33;;;9.70;99.90;;;;;;5065139;28;20580;-57
2023/10/31 00:26:58;;;;;;;2.40;1.10;;;9.70;99.90;;;;;;5059175;28;20243;-58
2023/10/31 00:29:23;;;;;;;1.20;1.10;;;9.70;99.90;;;;;;5062985;28;20189;-59
2023/10/31 00:31:49;;;;;;;1.10;1.00;;;9.70;99.90;;;;;;5063960;28;20534;-58
2023/10/31 00:34:15;;;;;;;0.93;0.87;;;9.70;99.90;;;;;;5060452;28;20179;-59
2023/10/31 00:36:41;;;;;;;1.00;1.00;;;9.60;99.90;;;;;;5065106;28;21017;-58
2023/10/31 00:39:06;;;;;;;1.27;1.17;;;9.60;99.90;;;;;;5060625;28;20183;-58
2023/10/31 00:41:32;;;;;;;1.43;1.33;;;9.60;99.90;;;;;;5053806;28;20195;-57
2023/10/31 00:43:58;;;;;;;1.27;1.17;;;9.60;99.90;;;;;;5053688;28;20206;-58
2023/10/31 00:46:23;;;;;;;4.07;1.30;;;9.60;99.90;;;;;;5061678;28;20255;-58
2023/10/31 00:48:49;;;;;;;1.60;1.23;;;9.60;99.90;;;;;;5060136;28;20663;-57
2023/10/31 00:51:14;;;;;;;1.30;1.20;;;9.60;99.90;;;;;;5063047;28;20182;-58
2023/10/31 00:53:40;;;;;;;1.17;1.10;;;9.60;99.90;;;;;;5056464;28;20270;-57
2023/10/31 00:56:06;;;;;;;2.17;1.70;;;9.60;99.90;;;;;;5055822;28;20206;-58
2023/10/31 00:58:31;;;;;;;1.37;1.27;;;9.50;99.90;;;;;;5065870;28;20274;-56
2023/10/31 01:00:58;;;;;;;1.40;1.30;;;9.50;99.90;;;;;;5063472;28;21036;-58
2023/10/31 01:03:23;;;;;;;2.77;1.30;;;9.50;99.90;;;;;;5062050;28;20198;-58
2023/10/31 01:05:49;;;;;;;1.30;1.20;;;9.50;99.90;;;;;;5057225;28;20437;-57
2023/10/31 01:08:15;;;;;;;1.30;1.20;;;9.50;99.90;;;;;;5066470;28;20187;-58
2023/10/31 01:10:40;;;;;;;1.30;1.20;;;9.50;99.90;;;;;;5058600;28;20177;-58
2023/10/31 01:13:06;;;;;;;2.23;1.30;;;9.50;99.90;;;;;;5057276;28;20523;-58
2023/10/31 01:15:32;;;;;;;2.37;1.20;;;9.50;99.90;;;;;;5062663;28;20202;-57
2023/10/31 01:17:57;;;;;;;1.27;1.17;;;9.50;99.90;;;;;;5061493;28;20229;-58
2023/10/31 01:20:23;;;;;;;1.60;1.17;;;9.50;99.90;;;;;;5067646;28;20186;-57
2023/10/31 01:22:49;;;;;;;3.70;1.07;;;9.40;99.90;;;;;;5063575;28;20573;-57
2023/10/31 01:25:14;;;;;;;1.93;1.20;;;9.50;99.90;;;;;;5062430;28;20210;-58
2023/10/31 01:27:41;;;;;;;1.40;1.30;;;9.40;99.90;;;;;;5067114;28;20186;-57
2023/10/31 01:30:08;;;;;;;1.00;1.00;;;9.40;99.90;;;;;;5063940;28;20189;-58
2023/10/31 01:32:33;;;;;;;1.23;1.20;;;9.50;99.90;;;;;;5067725;28;20958;-58
2023/10/31 01:34:59;;;;;;;1.33;1.23;;;9.40;99.90;;;;;;5062957;28;20460;-58
2023/10/31 01:37:24;;;;;;;1.43;1.33;;;9.40;99.90;;;;;;5069573;28;20247;-58
2023/10/31 01:39:50;;;;;;;1.30;1.20;;;9.40;99.90;;;;;;5065237;28;20244;-58
2023/10/31 01:42:16;;;;;;;1.40;1.30;;;9.40;99.90;;;;;;5066313;28;20247;-58
2023/10/31 01:44:42;;;;;;;1.13;1.03;;;9.40;99.90;;;;;;5065148;28;20186;-57
2023/10/31 01:47:08;;;;;;;1.23;0.97;;;9.40;99.90;;;;;;5058849;28;20840;-58
2023/10/31 01:49:38;;;;;;;4.67;1.33;;;9.40;99.90;;;;;;5056014;28;20441;-58
2023/10/31 01:52:04;;;;;;;1.83;1.30;;;9.40;99.90;;;;;;5067361;28;20580;-58
2023/10/31 01:54:30;;;;;;;1.27;1.17;;;9.40;99.90;;;;;;5063897;28;20463;-58
2023/10/31 01:56:57;;;;;;;1.10;1.00;;;9.30;99.90;;;;;;5066691;28;20437;-58
2023/10/31 01:59:25;;;;;;;1.20;1.10;;;9.30;99.90;;;;;;5062175;28;20680;-58
2023/10/31 02:01:50;;;;;;;1.60;1.10;;;9.30;99.90;;;;;;5060548;28;20482;-58
2023/10/31 02:04:16;;;;;;;0.90;0.90;;;9.20;99.90;;;;;;5068499;28;20414;-59
2023/10/31 02:06:41;;;;;;;1.57;1.10;;;9.20;99.90;;;;;;5063207;28;20190;-57
2023/10/31 02:09:07;;;;;;;1.20;1.10;;;9.20;99.90;;;;;;5067805;28;20992;-58
2023/10/31 02:11:33;;;;;;;1.70;1.10;;;9.10;99.90;;;;;;5066679;28;20202;-58
2023/10/31 02:13:58;;;;;;;1.30;1.20;;;9.10;99.90;;;;;;5060843;28;20174;-58
2023/10/31 02:16:25;;;;;;;2.63;1.30;;;9.10;99.90;;;;;;5066482;28;20224;-57
2023/10/31 02:18:51;;;;;;;1.37;1.00;;;9.10;99.90;;;;;;5062257;28;20209;-58
2023/10/31 02:21:20;;;;;;;1.20;0.90;;;9.10;99.90;;;;;;5060643;28;20984;-58
2023/10/31 02:23:59;;;;;;;1.07;1.07;;;9.10;99.90;;;;;;5059033;28;20189;-58
2023/10/31 02:26:29;;;;;;;2.20;1.10;;;9.00;99.90;;;;;;5069209;28;20855;-60
2023/10/31 02:28:55;;;;;;;1.47;1.00;;;9.00;99.90;;;;;;5065377;28;20419;-57
2023/10/31 02:31:21;;;;;;;1.63;1.10;;;9.00;99.90;;;;;;5066535;28;20416;-58
2023/10/31 02:33:46;;;;;;;3.63;1.37;;;8.90;99.90;;;;;;5067616;28;20181;-57
2023/10/31 02:36:12;;;;;;;1.10;1.10;;;8.90;99.90;;;;;;5056083;28;20201;-58
2023/10/31 02:38:37;;;;;;;1.00;1.00;;;8.90;99.90;;;;;;5060140;28;20185;-58
2023/10/31 02:41:03;;;;;;;1.50;1.40;;;8.90;99.90;;;;;;5067841;28;20189;-58
2023/10/31 02:43:29;;;;;;;1.27;1.17;;;8.90;99.90;;;;;;5062828;28;20194;-57
2023/10/31 02:45:54;;;;;;;2.70;1.30;;;8.90;99.90;;;;;;5064945;28;20194;-58
2023/10/31 02:48:20;;;;;;;1.30;1.10;;;8.90;99.90;;;;;;5060435;28;20183;-57
2023/10/31 02:50:46;;;;;;;1.00;1.00;;;8.90;99.90;;;;;;5059573;28;20175;-59
2023/10/31 02:53:11;;;;;;;3.47;1.13;;;8.80;99.90;;;;;;5059431;28;20286;-58
2023/10/31 02:55:37;;;;;;;1.00;1.00;;;8.80;99.90;;;;;;5064556;28;20210;-57
2023/10/31 02:58:02;;;;;;;4.40;1.10;;;8.80;99.90;;;;;;5055470;28;20531;-58
2023/10/31 03:00:28;;;;;;;2.20;1.23;;;8.80;99.90;;;;;;5060670;28;20179;-58
2023/10/31 03:02:54;;;;;;;1.97;1.40;;;8.80;99.90;;;;;;5060450;28;20451;-58
2023/10/31 03:05:19;;;;;;;2.00;0.97;;;8.80;99.90;;;;;;5061107;28;20251;-57
2023/10/31 03:07:45;;;;;;;2.30;0.87;;;8.80;99.90;;;;;;5065504;28;20179;-58
2023/10/31 03:10:11;;;;;;;2.80;1.20;;;8.80;99.90;;;;;;5061442;28;20192;-58
2023/10/31 03:12:36;;;;;;;2.27;1.10;;;8.80;99.90;;;;;;5065688;28;20240;-58
2023/10/31 03:15:03;;;;;;;2.47;1.00;;;8.80;99.90;;;;;;5066896;28;20293;-57
2023/10/31 03:17:29;;;;;;;1.67;1.23;;;8.80;99.90;;;;;;5062116;28;20175;-58
2023/10/31 03:19:55;;;;;;;2.80;1.10;;;8.80;99.90;;;;;;5062738;28;20460;-57
2023/10/31 03:22:21;;;;;;;3.47;1.30;;;8.80;99.90;;;;;;5061077;28;20475;-58
2023/10/31 03:24:47;;;;;;;2.60;1.00;;;8.70;99.90;;;;;;5048129;28;20226;-58
2023/10/31 03:27:12;;;;;;;2.63;1.20;;;8.70;99.90;;;;;;5058495;28;20265;-58
2023/10/31 03:29:38;;;;;;;2.50;1.17;;;8.70;99.90;;;;;;5065467;28;20626;-58
2023/10/31 03:32:05;;;;;;;1.30;1.07;;;8.70;99.90;;;;;;5064262;28;20226;-58
2023/10/31 03:34:30;;;;;;;1.50;1.23;;;8.70;99.90;;;;;;5059887;28;20178;-59
2023/10/31 03:36:56;;;;;;;1.60;1.50;;;8.70;99.90;;;;;;5065346;28;20420;-58
2023/10/31 03:39:22;;;;;;;1.10;1.00;;;8.70;99.90;;;;;;5061167;28;20190;-58
2023/10/31 03:41:47;;;;;;;1.70;1.17;;;8.70;99.90;;;;;;5063714;28;20248;-58
2023/10/31 03:44:13;;;;;;;1.30;1.20;;;8.70;99.90;;;;;;5062128;28;20573;-58
2023/10/31 03:46:39;;;;;;;1.00;1.00;;;8.70;99.90;;;;;;5064079;28;20175;-58
2023/10/31 03:49:07;;;;;;;1.20;1.10;;;8.70;99.90;;;;;;5064162;28;20170;-58
2023/10/31 03:51:33;;;;;;;1.10;1.10;;;8.70;99.90;;;;;;5055801;28;20247;-57
2023/10/31 03:53:58;;;;;;;6.30;1.20;;;8.70;99.90;;;;;;5062289;28;20420;-58
2023/10/31 03:56:24;;;;;;;1.23;1.10;;;8.70;99.90;;;;;;5065527;28;20978;-58
2023/10/31 03:58:50;;;;;;;1.67;1.30;;;8.70;99.90;;;;;;5061473;28;20170;-58
2023/10/31 04:01:15;;;;;;;3.17;1.10;;;8.70;99.90;;;;;;5057120;28;20164;-59
2023/10/31 04:03:41;;;;;;;2.30;1.20;;;8.70;99.90;;;;;;5063652;28;20174;-59
2023/10/31 04:06:06;;;;;;;2.20;0.83;;;8.70;99.90;;;;;;5064165;28;20257;-58
2023/10/31 04:08:32;;;;;;;1.00;0.90;;;8.70;99.90;;;;;;5062382;28;20197;-57
2023/10/31 04:10:57;;;;;;;1.53;1.00;;;8.70;99.90;;;;;;5063342;28;20196;-58
2023/10/31 04:13:23;;;;;;;0.90;0.90;;;8.70;99.90;;;;;;5065131;28;20205;-58
2023/10/31 04:15:49;;;;;;;1.70;1.20;;;8.70;99.90;;;;;;5064017;28;20225;-58
2023/10/31 04:18:14;;;;;;;1.67;1.30;;;8.70;99.90;;;;;;5064074;28;20669;-60
2023/10/31 04:20:40;;;;;;;1.17;1.00;;;8.70;99.90;;;;;;5061778;28;20178;-57
2023/10/31 04:23:06;;;;;;;1.40;1.10;;;8.70;99.90;;;;;;5062551;28;20196;-58
2023/10/31 04:25:31;;;;;;;0.80;0.80;;;8.70;99.90;;;;;;5054945;28;20321;-57
2023/10/31 04:27:57;;;;;;;6.10;1.27;;;8.60;99.90;;;;;;5058951;28;20190;-58
2023/10/31 04:30:23;;;;;;;1.40;1.30;;;8.60;99.90;;;;;;5060181;28;20171;-58
2023/10/31 04:32:49;;;;;;;1.17;1.00;;;8.60;99.90;;;;;;5065601;28;20507;-58
2023/10/31 04:35:14;;;;;;;9.50;5.00;;;8.60;99.90;;;;;;5064676;28;20746;-58
2023/10/31 04:37:40;;;;;;;1.53;1.40;;;8.60;99.90;;;;;;5064142;28;20175;-58
2023/10/31 04:40:06;;;;;;;2.03;1.13;;;8.50;99.90;;;;;;5058495;28;20188;-58
2023/10/31 04:42:33;;;;;;;0.90;0.90;;;8.50;99.90;;;;;;5063531;28;20197;-57
2023/10/31 04:44:59;;;;;;;1.20;1.03;;;8.50;99.90;;;;;;5065099;28;20411;-58
2023/10/31 04:47:24;;;;;;;0.90;0.90;;;8.50;99.90;;;;;;5062690;28;20417;-58
2023/10/31 04:49:50;;;;;;;1.90;1.50;;;8.50;99.90;;;;;;5058940;28;20733;-57
2023/10/31 04:52:17;;;;;;;1.30;1.20;;;8.40;99.90;;;;;;5064738;28;20750;-58
2023/10/31 04:54:42;;;;;;;4.60;1.20;;;8.40;99.90;;;;;;5067851;28;20229;-58
2023/10/31 04:57:08;;;;;;;1.40;1.30;;;8.40;99.90;;;;;;5064735;28;20460;-59
2023/10/31 04:59:33;;;;;;;3.90;1.60;;;8.30;99.90;;;;;;5061432;28;20175;-58
2023/10/31 05:01:59;;;;;;;1.10;1.10;;;8.40;99.90;;;;;;5059439;28;20663;-58
2023/10/31 05:04:25;;;;;;;1.47;1.10;;;8.40;99.90;;;;;;5066568;28;20167;-58
2023/10/31 05:06:50;;;;;;;2.10;1.10;;;8.30;99.90;;;;;;5064866;28;20603;-58
2023/10/31 05:09:17;;;;;;;1.27;0.93;;;8.30;99.90;;;;;;5063526;28;20163;-58
2023/10/31 05:11:43;;;;;;;1.10;1.00;;;8.30;99.90;;;;;;5064272;28;20800;-58
2023/10/31 05:14:10;;;;;;;4.00;1.13;;;8.20;99.90;;;;;;5067737;28;20407;-58
2023/10/31 05:16:40;;;;;;;3.77;1.13;;;8.30;99.90;;;;;;5066051;28;20247;-58
2023/10/31 05:19:06;;;;;;;2.47;1.20;;;8.30;99.90;;;;;;5067157;28;20435;-58
2023/10/31 05:21:31;;;;;;;0.97;0.97;;;8.30;99.90;;;;;;5063913;28;20904;-57
2023/10/31 05:23:57;;;;;;;1.77;1.40;;;8.30;99.90;;;;;;5065485;28;20181;-58
2023/10/31 05:26:23;;;;;;;2.30;1.03;;;8.20;99.90;;;;;;5069730;28;20178;-59
2023/10/31 05:28:48;;;;;;;2.00;1.27;;;8.20;99.90;;;;;;5068427;28;20175;-58
2023/10/31 05:31:15;;;;;;;2.60;1.60;;;8.20;99.90;;;;;;5065069;28;20185;-58
2023/10/31 05:33:41;;;;;;;2.13;1.30;;;8.20;99.90;;;;;;5062183;28;20202;-59
2023/10/31 05:36:27;;;;;;;3.43;1.67;;;8.20;99.90;;;;;;5059297;28;20865;-58
2023/10/31 05:38:53;;;;;;;1.13;1.00;;;8.10;99.90;;;;;;5060481;28;20185;-58
2023/10/31 05:41:19;;;;;;;2.17;1.97;;;8.10;99.90;;;;;;5068846;28;20416;-58
2023/10/31 05:43:45;;;;;;;3.00;2.10;;;8.00;99.90;;;;;;5067837;28;20167;-58
2023/10/31 05:46:10;;;;;;;4.50;1.50;;;8.10;99.90;;;;;;5058135;28;20265;-58
2023/10/31 05:48:48;;;;;;;1.20;1.10;;;8.10;99.90;;;;;;5061947;28;20472;-58
2023/10/31 05:51:15;;;;;;;1.77;1.00;;;8.10;99.90;;;;;;5057677;28;20920;-58
2023/10/31 05:53:43;;;;;;;1.63;1.20;;;8.00;99.90;;;;;;5061552;28;20417;-58
2023/10/31 05:56:09;;;;;;;1.47;1.23;;;8.00;99.90;;;;;;5064149;28;20457;-58
2023/10/31 05:58:35;;;;;;;1.67;1.10;;;8.00;99.90;;;;;;5065430;28;20455;-58
2023/10/31 06:01:01;;;;;;;2.43;1.40;;;8.00;99.90;;;;;;5061568;28;20470;-60
2023/10/31 06:03:26;;;;;;;1.57;1.23;;;8.00;99.90;;;;;;5064200;28;20452;-59
2023/10/31 06:05:52;;;;;;;3.63;1.27;;;8.00;99.90;;;;;;5065121;28;20722;-59
2023/10/31 06:08:17;;;;;;;2.83;1.60;;;8.00;99.90;;;;;;5066780;28;20656;-58
2023/10/31 06:10:43;;;;;;;4.30;2.00;;;8.00;99.90;;;;;;5059628;28;20190;-58
2023/10/31 06:13:09;;;;;;;3.70;2.13;;;8.00;99.90;;;;;;5067071;28;20190;-58
2023/10/31 06:15:34;;;;;;;4.87;2.20;;;7.90;99.90;;;;;;5065294;28;20190;-59
2023/10/31 06:18:00;;;;;;;2.17;1.97;;;7.90;99.90;;;;;;5065320;28;20182;-59
2023/10/31 06:20:26;;;;;;;2.63;2.20;;;7.90;99.90;;;;;;5062791;28;20583;-59
2023/10/31 06:22:52;;;;;;;6.80;3.00;;;7.90;99.90;;;;;;5061997;28;20202;-58
2023/10/31 06:25:17;;;;;;;4.23;2.83;;;7.90;99.90;;;;;;5067482;28;20412;-59
2023/10/31 06:27:43;;;;;;;2.60;1.60;;;7.90;99.90;;;;;;5067829;28;20206;-58
2023/10/31 06:30:10;;;;;;;2.20;1.60;;;7.90;99.90;;;;;;5063900;28;20645;-61
2023/10/31 06:32:36;;;;;;;2.40;1.60;;;7.90;99.90;;;;;;5061656;28;20191;-59
2023/10/31 06:35:02;;;;;;;2.70;1.57;;;7.90;99.90;;;;;;5058932;28;20467;-58
2023/10/31 06:37:28;;;;;;;1.63;1.53;;;7.90;99.90;;;;;;5055345;28;20434;-59
2023/10/31 06:39:53;;;;;;;3.03;1.53;;;7.90;99.90;;;;;;5063216;28;20197;-59
2023/10/31 06:42:19;;;;;;;4.70;1.83;;;7.90;99.90;;;;;;5059830;28;20240;-59
2023/10/31 06:44:44;;;;;;;2.07;1.63;;;7.90;99.90;;;;;;5065885;28;20183;-59
2023/10/31 06:47:10;;;;;;;3.83;2.13;;;7.90;99.90;;;;;;5066821;28;20186;-59
2023/10/31 06:49:36;;;;;;;7.80;2.37;;;7.90;99.90;;;;;;5063709;28;20174;-59
2023/10/31 06:52:02;;;;;;;3.13;1.87;;;7.90;99.90;;;;;;5066353;28;20221;-58
2023/10/31 06:54:28;;;;;;;5.93;1.90;;;7.90;99.90;;;;;;5064401;28;20465;-59
2023/10/31 06:56:53;;;;;;;3.03;1.63;;;7.90;99.90;;;;;;5065685;28;20417;-59
2023/10/31 06:59:19;;;;;;;4.47;1.80;;;7.90;99.90;;;;;;5066740;28;20179;-59
2023/10/31 07:01:46;;;;;;;5.67;2.20;;;7.90;99.90;;;;;;5065780;28;20576;-59
2023/10/31 07:04:12;;;;;;;2.50;1.70;;;7.90;99.90;;;;;;5057411;28;20195;-59
2023/10/31 07:06:37;;;;;;;4.83;2.00;;;7.90;99.90;;;;;;5064600;28;20456;-59
2023/10/31 07:09:05;;;;;;;3.70;1.93;;;7.90;99.90;;;;;;5058267;28;20183;-58
2023/10/31 07:11:33;;;;;;;2.90;1.87;;;7.90;99.90;;;;;;5062373;28;20754;-59
2023/10/31 07:14:02;;;;;;;4.93;2.33;;;8.00;99.90;;;;;;5055798;28;20519;-58
2023/10/31 07:16:27;;;;;;;2.90;1.60;;;7.90;99.90;;;;;;5066395;28;20487;-59
2023/10/31 07:18:53;;;;;;;8.33;1.90;;;8.00;99.90;;;;;;5058276;28;20425;-59
2023/10/31 07:21:19;;;;;;;5.23;1.60;;;7.90;99.90;;;;;;5064956;28;20178;-58
2023/10/31 07:23:44;;;;;;;2.20;1.53;;;8.00;99.90;;;;;;5064471;28;20181;-58
2023/10/31 07:26:10;;;;;;;5.57;2.00;;;8.00;99.90;;;;;;5062570;28;20175;-59
2023/10/31 07:28:36;;;;;;;3.90;1.77;;;8.00;99.90;;;;;;5066228;28;20636;-58
2023/10/31 07:31:02;;;;;;;4.03;1.77;;;8.00;99.90;;;;;;5064161;28;20621;-58
2023/10/31 07:33:27;;;;;;;4.23;1.80;;;8.10;99.90;;;;;;5062376;28;20217;-59
2023/10/31 07:35:53;;;;;;;3.13;2.07;;;8.10;99.90;;;;;;5063625;28;20833;-59
2023/10/31 07:38:19;;;;;;;5.53;2.50;;;8.10;99.90;;;;;;5064270;28;20645;-59
2023/10/31 07:40:44;;;;;;;7.00;3.80;;;8.20;99.90;;;;;;5061123;28;20732;-58
2023/10/31 07:43:10;;;;;;;9.43;4.00;;;8.20;99.90;;;;;;5061482;28;20198;-59
2023/10/31 07:45:35;;;;;;;5.67;2.90;;;8.20;99.90;;;;;;5066902;28;20299;-58
2023/10/31 07:48:01;;;;;;;8.93;2.97;;;8.20;99.90;;;;;;5067127;28;20261;-59
2023/10/31 07:50:27;;;;;;;8.40;4.10;;;8.20;99.90;;;;;;5063702;28;20182;-59
2023/10/31 07:52:53;;;;;;;14.07;4.20;;;8.30;99.90;;;;;;5066429;28;20483;-59
2023/10/31 07:55:19;;;;;;;12.77;3.67;;;8.30;99.90;;;;;;5065730;28;20226;-58
2023/10/31 07:57:44;;;;;;;6.97;3.90;;;8.30;99.90;;;;;;5062187;28;20209;-58
2023/10/31 08:00:13;;;;;;;3.97;2.73;;;8.30;99.90;;;;;;5061575;28;20512;-59
2023/10/31 08:02:39;;;;;;;10.00;3.67;;;8.40;99.90;;;;;;5062488;28;20224;-58
2023/10/31 08:05:07;;;;;;;10.73;3.90;;;8.40;99.90;;;;;;5062015;28;20509;-59
2023/10/31 08:07:32;;;;;;;6.47;3.10;;;8.40;99.90;;;;;;5065327;28;20220;-61
2023/10/31 08:09:58;;;;;;;5.07;3.00;;;8.50;99.90;;;;;;5065667;28;20420;-59
2023/10/31 08:12:24;;;;;;;4.20;2.13;;;8.50;99.90;;;;;;5060577;28;20594;-60
2023/10/31 08:14:49;;;;;;;7.43;2.50;;;8.50;99.90;;;;;;5056486;28;20225;-60
2023/10/31 08:17:15;;;;;;;5.63;2.27;;;8.60;99.90;;;;;;5063817;28;20166;-59
2023/10/31 08:19:42;;;;;;;5.37;2.93;;;8.60;99.90;;;;;;5063302;28;20176;-60
2023/10/31 08:22:08;;;;;;;9.80;2.90;;;8.60;99.90;;;;;;5063429;28;20186;-60
2023/10/31 08:24:35;;;;;;;9.20;2.30;;;8.70;99.90;;;;;;5065296;28;20547;-59
2023/10/31 08:27:02;;;;;;;10.27;3.13;;;8.70;99.90;;;;;;5063667;28;20178;-60
2023/10/31 08:29:27;;;;;;;3.83;2.13;;;8.80;99.90;;;;;;5069175;28;20432;-60
2023/10/31 08:31:53;;;;;;;8.90;2.50;;;8.80;99.90;;;;;;5068599;28;20813;-60
2023/10/31 08:34:18;;;;;;;4.73;2.50;;;8.90;99.90;;;;;;5067450;28;20668;-60
2023/10/31 08:36:44;;;;;;;7.13;3.20;;;8.90;99.90;;;;;;5066807;28;20222;-59
2023/10/31 08:39:10;;;;;;;4.90;2.50;;;9.00;99.90;;;;;;5063752;28;20187;-60
2023/10/31 08:41:37;;;;;;;5.23;2.47;;;9.00;99.90;;;;;;5062286;28;20611;-59
2023/10/31 08:44:03;;;;;;;7.63;2.63;;;9.00;99.90;;;;;;5066780;28;20572;-60
2023/10/31 08:46:29;;;;;;;6.70;1.83;;;9.10;99.90;;;;;;5053147;28;20493;-59
2023/10/31 08:48:54;;;;;;;6.57;2.20;;;9.10;99.90;;;;;;5069456;28;20814;-59
2023/10/31 08:51:20;;;;;;;4.37;1.77;;;9.10;99.90;;;;;;5054988;28;20187;-59
2023/10/31 08:53:45;;;;;;;8.03;2.07;;;9.20;99.90;;;;;;5061686;28;20243;-59
2023/10/31 08:56:11;;;;;;;3.00;1.83;;;9.30;99.90;;;;;;5063447;28;20210;-60
2023/10/31 08:58:36;;;;;;;6.97;3.30;;;9.30;99.90;;;;;;5069706;28;20208;-60
2023/10/31 09:01:02;;;;;;;4.03;2.37;;;9.30;99.90;;;;;;5062661;28;20174;-60
2023/10/31 09:03:28;;;;;;;3.13;2.23;;;9.30;99.90;;;;;;5062509;28;20727;-59
2023/10/31 09:05:54;;;;;;;6.50;2.50;;;9.30;99.90;;;;;;5066187;28;20178;-59
2023/10/31 09:08:19;;;;;;;7.97;2.00;;;9.30;99.90;;;;;;5066614;28;20179;-59
2023/10/31 09:10:46;;;;;;;5.70;2.20;;;9.40;99.90;;;;;;5067585;28;20191;-58
2023/10/31 09:13:12;;;;;;;5.30;1.90;;;9.40;99.90;;;;;;5057273;28;20214;-59
2023/10/31 09:15:38;;;;;;;3.97;1.73;;;9.40;99.90;;;;;;5062739;28;20456;-58
2023/10/31 09:18:04;;;;;;;6.10;1.60;;;9.50;99.90;;;;;;5053871;28;20166;-60
2023/10/31 09:20:30;;;;;;;4.60;1.77;;;9.40;99.90;;;;;;5057529;28;20421;-59
2023/10/31 09:22:56;;;;;;;5.87;1.87;;;9.40;99.90;;;;;;5058249;28;20663;-61
2023/10/31 09:25:21;;;;;;;2.00;1.60;;;9.40;99.90;;;;;;5055122;28;20178;-60
2023/10/31 09:27:47;;;;;;;6.83;1.93;;;9.40;99.90;;;;;;5062364;28;21000;-60
2023/10/31 09:30:13;;;;;;;5.40;1.87;;;9.50;99.90;;;;;;5066958;28;20179;-61
2023/10/31 09:32:38;;;;;;;2.03;1.80;;;9.50;99.90;;;;;;5066402;28;20194;-62
2023/10/31 09:35:05;;;;;;;3.83;1.57;;;9.60;99.90;;;;;;5067629;28;20272;-61
2023/10/31 09:37:31;;;;;;;3.60;1.60;;;9.60;99.90;;;;;;5064713;28;20270;-61
2023/10/31 09:39:56;;;;;;;3.90;1.60;;;9.70;99.90;;;;;;5058580;28;20531;-60
2023/10/31 09:42:22;;;;;;;3.80;1.50;;;9.70;99.90;;;;;;5069209;28;20217;-61
2023/10/31 09:44:47;;;;;;;3.07;1.90;;;9.70;99.90;;;;;;5068879;28;20193;-60
2023/10/31 09:47:15;;;;;;;2.87;1.70;;;9.70;99.90;;;;;;5065938;28;20170;-61
2023/10/31 09:49:40;;;;;;;2.80;1.50;;;9.70;99.90;;;;;;5065341;28;20673;-61
2023/10/31 09:52:07;;;;;;;2.67;1.60;;;9.70;99.90;;;;;;5061803;28;20506;-60
2023/10/31 09:54:33;;;;;;;2.03;1.73;;;9.70;99.90;;;;;;5073810;28;20717;-62
2023/10/31 09:56:59;;;;;;;4.40;2.00;;;9.70;99.90;;;;;;5064880;28;20516;-60
2023/10/31 09:59:25;;;;;;;1.63;1.53;;;9.70;99.90;;;;;;5060569;28;20429;-60
2023/10/31 10:01:51;;;;;;;2.47;1.73;;;9.70;99.90;;;;;;5050892;28;20455;-61
2023/10/31 10:04:17;;;;;;;1.93;1.43;;;9.70;99.90;;;;;;5059592;28;20191;-59
2023/10/31 10:07:00;;;;;;;4.57;1.30;;;9.70;99.90;;;;;;5059529;28;20171;-61
2023/10/31 10:09:27;;;;;;;5.40;1.63;;;9.70;99.90;;;;;;5064899;28;20451;-61
2023/10/31 10:11:53;;;;;;;1.40;1.30;;;9.80;99.90;;;;;;5064436;28;20453;-61
2023/10/31 10:14:18;;;;;;;1.37;1.27;;;9.80;99.90;;;;;;5065784;28;20429;-60
2023/10/31 10:16:44;;;;;;;1.40;1.30;;;9.80;99.90;;;;;;5064596;28;20206;-61
2023/10/31 10:19:19;;;;;;;1.47;1.20;;;9.80;99.90;;;;;;5064532;28;20169;-60
2023/10/31 10:21:54;;;;;;;2.17;1.70;;;9.80;99.90;;;;;;5065374;28;20285;-60
2023/10/31 10:24:21;;;;;;;2.83;1.30;;;9.90;99.90;;;;;;5065763;28;20415;-59
2023/10/31 10:26:47;;;;;;;1.80;1.20;;;9.90;99.90;;;;;;5063906;28;20424;-61
2023/10/31 10:29:13;;;;;;;2.10;1.30;;;10.00;99.90;;;;;;5060998;28;20424;-60
2023/10/31 10:31:40;;;;;;;1.33;1.17;;;10.00;99.90;;;;;;5056427;28;20887;-61
2023/10/31 10:34:06;;;;;;;3.70;1.53;;;10.00;99.90;;;;;;5062908;28;20521;-60
2023/10/31 10:36:33;;;;;;;7.13;2.37;;;10.00;99.90;;;;;;5061725;28;20974;-61
2023/10/31 10:39:00;;;;;;;2.37;1.70;;;10.00;99.90;;;;;;5061945;28;20463;-59
2023/10/31 10:41:29;;;;;;;3.33;1.60;;;10.00;99.90;;;;;;5064347;28;20954;-60
2023/10/31 10:44:06;;;;;;;1.83;1.50;;;10.10;99.90;;;;;;5057691;28;22228;-60
2023/10/31 10:46:34;;;;;;;2.33;1.10;;;10.10;99.90;;;;;;5062055;28;20440;-59
2023/10/31 10:49:06;;;;;;;2.10;1.40;;;10.30;99.90;;;;;;5067673;28;20448;-60
2023/10/31 10:51:56;;;;;;;3.53;1.20;;;10.40;99.90;;;;;;5051870;28;20425;-60
2023/10/31 10:55:00;;;;;;;3.30;1.43;;;10.50;99.90;;;;;;5062107;28;20466;-61
2023/10/31 10:57:44;;;;;;;2.60;1.10;;;10.70;99.90;;;;;;5043943;28;20501;-60
2023/10/31 11:00:12;;;;;;;3.20;1.20;;;10.80;99.90;;;;;;5064396;28;20417;-58
2023/10/31 11:02:43;;;;;;;4.17;1.20;;;10.90;99.90;;;;;;5061186;28;20468;-59
2023/10/31 11:05:09;;;;;;;2.20;1.10;;;11.00;99.90;;;;;;5060110;28;20429;-56
2023/10/31 11:07:37;;;;;;;2.57;1.00;;;11.00;99.90;;;;;;5059225;28;20452;-57
2023/10/31 11:10:04;;;;;;;2.10;1.23;;;11.00;99.90;;;;;;5065853;28;21047;-58
2023/10/31 11:12:31;;;;;;;3.07;1.23;;;10.90;99.90;;;;;;5063219;28;20448;-60
2023/10/31 11:15:02;;;;;;;9.33;1.37;;;10.90;99.90;;;;;;5064678;28;20448;-61
2023/10/31 11:17:34;;;;;;;1.40;1.30;;;10.90;99.90;;;;;;5064362;28;20483;-59
2023/10/31 11:20:01;;;;;;;2.23;1.57;;;11.00;99.90;;;;;;5063439;28;20486;-60
2023/10/31 11:22:40;;;;;;;3.27;1.53;;;11.00;99.90;;;;;;5061630;28;20432;-59
2023/10/31 11:25:10;;;;;;;4.27;1.37;;;11.10;99.90;;;;;;5065023;28;20417;-60
2023/10/31 11:27:37;;;;;;;2.57;0.97;;;11.10;99.90;;;;;;5066801;28;20488;-60
2023/10/31 11:30:06;;;;;;;1.37;1.13;;;11.20;99.90;;;;;;5062479;28;20435;-60
2023/10/31 11:32:33;;;;;;;3.00;1.20;;;11.20;99.90;;;;;;5062916;28;20445;-59
2023/10/31 11:35:01;;;;;;;1.07;0.97;;;11.20;99.90;;;;;;5064334;28;20929;-60
2023/10/31 11:37:36;;;;;;;1.87;0.90;;;11.20;99.90;;;;;;5066133;28;20428;-60
2023/10/31 11:40:14;;;;;;;1.90;1.20;;;11.20;99.90;;;;;;5060881;28;21191;-58
2023/10/31 11:42:48;;;;;;;2.40;1.43;;;11.20;99.90;;;;;;5064890;28;20424;-59
2023/10/31 11:45:30;;;;;;;3.83;1.50;;;11.20;99.90;;;;;;5058497;28;20437;-59
2023/10/31 11:47:56;;;;;;;1.83;1.53;;;11.20;99.90;;;;;;5064158;28;20435;-58
2023/10/31 11:50:22;;;;;;;3.30;1.80;;;11.20;99.90;;;;;;5062532;28;20423;-60
2023/10/31 11:53:04;;;;;;;2.60;1.57;;;11.20;99.90;;;;;;5062366;28;20514;-60
2023/10/31 11:55:40;;;;;;;4.90;1.53;;;11.20;99.90;;;;;;5062374;28;21030;-60
2023/10/31 11:58:19;;;;;;;4.40;2.13;;;11.20;99.90;;;;;;5059137;28;20491;-60
2023/10/31 12:01:06;;;;;;;1.47;1.37;;;11.10;99.90;;;;;;5055705;28;20456;-61
2023/10/31 12:03:38;;;;;;;2.70;1.30;;;11.10;99.90;;;;;;5061320;28;20447;-60
2023/10/31 12:06:05;;;;;;;4.40;1.40;;;11.10;99.90;;;;;;5054967;28;20425;-60
2023/10/31 12:08:39;;;;;;;2.70;0.90;;;11.00;99.90;;;;;;5050891;28;20437;-60
2023/10/31 12:11:19;;;;;;;2.73;1.43;;;11.10;99.90;;;;;;5058712;28;20431;-60
2023/10/31 12:14:04;;;;;;;1.90;1.10;;;11.10;99.90;;;;;;5059249;28;20429;-60
2023/10/31 12:16:31;;;;;;;1.03;1.00;;;11.10;99.90;;;;;;5060127;28;20456;-61
2023/10/31 12:19:05;;;;;;;2.40;0.97;;;11.20;99.90;;;;;;5085414;28;20420;-59
2023/10/31 12:21:38;;;;;;;3.43;1.73;;;11.20;99.90;;;;;;5063238;28;20501;-61
2023/10/31 12:24:08;;;;;;;3.03;1.20;;;11.30;99.90;;;;;;5077523;28;21120;-60
2023/10/31 12:26:35;;;;;;;4.70;1.50;;;11.30;99.90;;;;;;5061230;28;20482;-60
2023/10/31 12:29:26;;;;;;;1.20;1.10;;;11.20;99.90;;;;;;5064506;28;20433;-61
2023/10/31 12:31:53;;;;;;;2.13;1.50;;;11.10;99.90;;;;;;5055230;28;20460;-60
2023/10/31 12:34:21;;;;;;;3.20;1.30;;;11.00;99.90;;;;;;5063691;28;20436;-60
2023/10/31 12:36:49;;;;;;;1.73;1.23;;;10.90;99.90;;;;;;5063298;28;20885;-59
2023/10/31 12:39:16;;;;;;;3.53;1.70;;;10.90;99.90;;;;;;5064310;28;20495;-61
2023/10/31 12:41:42;;;;;;;1.60;1.50;;;10.80;99.90;;;;;;5060892;28;20491;-61
2023/10/31 12:44:10;;;;;;;1.87;1.03;;;10.80;99.90;;;;;;5053365;28;20438;-59
2023/10/31 12:46:39;;;;;;;2.90;2.03;;;10.80;99.90;;;;;;5060416;28;20417;-58
2023/10/31 12:49:10;;;;;;;2.60;1.00;;;10.80;99.90;;;;;;5061014;28;21100;-58
2023/10/31 12:51:36;;;;;;;2.43;1.70;;;10.80;99.90;;;;;;5061454;28;20497;-58
2023/10/31 12:54:01;;;;;;;1.40;1.30;;;10.90;99.90;;;;;;5063099;28;20432;-58